createdAt,value
2018-05-06T00:00:34.436Z,88.30
2018-05-06T00:03:02.279Z,88.80
2018-05-06T00:05:30.137Z,89.00
2018-05-06T00:07:58.137Z,89.10
2018-05-06T00:10:26.097Z,89.00
2018-05-06T00:12:53.977Z,89.30
2018-05-06T00:15:21.915Z,89.40
2018-05-06T00:17:49.756Z,89.70
2018-05-06T00:20:17.815Z,89.70
2018-05-06T00:22:45.594Z,89.40
2018-05-06T00:25:13.773Z,89.60
2018-05-06T00:27:42.573Z,90.30
2018-05-06T00:30:10.674Z,90.20
2018-05-06T00:32:38.473Z,90.40
2018-05-06T00:35:06.334Z,90.60
2018-05-06T00:37:34.653Z,90.70
2018-05-06T00:40:02.453Z,90.50
2018-05-06T00:42:30.495Z,90.00
2018-05-06T00:44:58.613Z,89.10
2018-05-06T00:47:26.974Z,88.00
2018-05-06T00:49:54.954Z,87.50
2018-05-06T00:52:22.895Z,86.90
2018-05-06T00:54:51.095Z,87.10
2018-05-06T00:57:19.213Z,86.40
2018-05-06T00:59:47.153Z,86.60
2018-05-06T01:02:15.300Z,87.00
2018-05-06T01:04:43.303Z,87.60
2018-05-06T01:07:11.139Z,87.30
2018-05-06T01:09:39.019Z,86.70
2018-05-06T01:12:06.843Z,87.50
2018-05-06T01:14:34.720Z,87.00
2018-05-06T01:17:02.948Z,86.60
2018-05-06T01:19:30.721Z,86.30
2018-05-06T01:21:58.740Z,86.40
2018-05-06T01:24:26.963Z,86.80
2018-05-06T01:26:54.940Z,86.60
2018-05-06T01:29:22.820Z,86.90
2018-05-06T01:31:50.660Z,86.70
2018-05-06T01:34:18.499Z,87.00
2018-05-06T01:36:46.380Z,87.10
2018-05-06T01:39:14.479Z,87.40
2018-05-06T01:41:42.404Z,86.90
2018-05-06T01:44:11.059Z,86.70
2018-05-06T01:46:38.960Z,86.70
2018-05-06T01:49:07.360Z,86.70
2018-05-06T01:51:35.199Z,86.30
2018-05-06T01:54:03.359Z,86.00
2018-05-06T01:56:31.340Z,85.90
2018-05-06T01:58:59.899Z,85.70
2018-05-06T02:01:27.661Z,85.70
2018-05-06T02:03:55.294Z,85.30
2018-05-06T02:06:23.064Z,85.10
2018-05-06T02:08:50.750Z,85.00
2018-05-06T02:11:19.523Z,86.60
2018-05-06T02:13:47.420Z,86.60
2018-05-06T02:16:15.801Z,86.10
2018-05-06T02:18:44.139Z,85.70
2018-05-06T02:21:12.222Z,85.30
2018-05-06T02:23:40.281Z,85.30
2018-05-06T02:26:08.160Z,84.90
2018-05-06T02:28:37.420Z,85.40
2018-05-06T02:31:05.320Z,84.90
2018-05-06T02:33:33.344Z,85.10
2018-05-06T02:36:01.162Z,85.20
2018-05-06T02:38:28.961Z,85.40
2018-05-06T02:40:57.260Z,85.40
2018-05-06T02:43:25.083Z,85.40
2018-05-06T02:45:52.926Z,85.70
2018-05-06T02:48:21.520Z,85.60
2018-05-06T02:50:49.524Z,85.60
2018-05-06T02:53:19.138Z,86.10
2018-05-06T02:55:47.418Z,86.30
2018-05-06T02:58:15.638Z,86.30
2018-05-06T03:00:43.495Z,86.20
2018-05-06T03:03:12.256Z,86.40
2018-05-06T03:05:40.076Z,86.40
2018-05-06T03:08:07.995Z,86.50
2018-05-06T03:10:35.878Z,86.40
2018-05-06T03:13:03.778Z,86.50
2018-05-06T03:15:31.775Z,86.70
2018-05-06T03:17:59.896Z,86.70
2018-05-06T03:20:27.957Z,86.50
2018-05-06T03:22:55.975Z,86.50
2018-05-06T03:25:24.069Z,86.90
2018-05-06T03:27:52.095Z,86.60
2018-05-06T03:30:20.136Z,86.70
2018-05-06T03:32:48.156Z,87.10
2018-05-06T03:35:16.016Z,87.50
2018-05-06T03:37:43.822Z,87.70
2018-05-06T03:40:11.736Z,87.90
2018-05-06T03:42:39.675Z,87.80
2018-05-06T03:45:08.798Z,87.50
2018-05-06T03:47:37.057Z,87.60
2018-05-06T03:50:04.958Z,87.70
2018-05-06T03:52:32.985Z,87.80
2018-05-06T03:55:01.236Z,87.90
2018-05-06T03:57:41.336Z,88.10
2018-05-06T04:00:20.856Z,88.30
2018-05-06T04:02:49.017Z,88.60
2018-05-06T04:05:16.877Z,89.10
2018-05-06T04:07:45.185Z,89.40
2018-05-06T04:10:14.157Z,89.40
2018-05-06T04:12:42.457Z,89.70
2018-05-06T04:15:10.297Z,89.90
2018-05-06T04:17:38.837Z,90.00
2018-05-06T04:20:06.872Z,90.00
2018-05-06T04:22:34.661Z,90.10
2018-05-06T04:25:02.500Z,90.10
2018-05-06T04:27:30.336Z,90.50
2018-05-06T04:29:58.797Z,90.50
2018-05-06T04:32:26.718Z,90.40
2018-05-06T04:34:54.941Z,90.40
2018-05-06T04:37:22.837Z,90.60
2018-05-06T04:39:50.797Z,90.60
2018-05-06T04:42:18.737Z,90.50
2018-05-06T04:44:46.597Z,90.70
2018-05-06T04:47:15.517Z,90.80
2018-05-06T04:49:43.517Z,90.60
2018-05-06T04:52:11.737Z,90.20
2018-05-06T04:54:41.090Z,87.60
2018-05-06T04:57:09.277Z,82.40
2018-05-06T04:59:37.497Z,77.40
2018-05-06T05:02:05.561Z,78.10
2018-05-06T05:04:34.457Z,80.30
2018-05-06T05:07:02.337Z,81.60
2018-05-06T05:09:30.398Z,80.90
2018-05-06T05:11:58.297Z,78.70
2018-05-06T05:14:26.458Z,79.60
2018-05-06T05:16:54.619Z,80.70
2018-05-06T05:19:22.738Z,80.50
2018-05-06T05:21:50.857Z,79.70
2018-05-06T05:24:18.658Z,80.80
2018-05-06T05:26:46.539Z,80.20
2018-05-06T05:29:15.419Z,80.80
2018-05-06T05:31:43.517Z,79.70
2018-05-06T05:34:11.497Z,78.70
2018-05-06T05:36:39.457Z,79.20
2018-05-06T05:39:07.457Z,79.50
2018-05-06T05:41:35.519Z,78.10
2018-05-06T05:44:03.438Z,77.10
2018-05-06T05:46:31.317Z,77.70
2018-05-06T05:48:59.201Z,78.40
2018-05-06T05:51:27.078Z,80.00
2018-05-06T05:53:56.299Z,80.10
2018-05-06T05:56:24.184Z,80.10
2018-05-06T05:58:52.076Z,79.60
2018-05-06T06:01:19.976Z,80.90
2018-05-06T06:03:47.997Z,81.60
2018-05-06T06:06:15.916Z,81.80
2018-05-06T06:08:43.917Z,81.40
2018-05-06T06:11:11.835Z,81.80
2018-05-06T06:13:39.736Z,81.60
2018-05-06T06:16:08.436Z,82.00
2018-05-06T06:18:36.276Z,81.60
2018-05-06T06:21:04.437Z,80.40
2018-05-06T06:23:32.336Z,81.50
2018-05-06T06:26:00.636Z,82.00
2018-05-06T06:28:28.556Z,81.90
2018-05-06T06:30:56.415Z,82.70
2018-05-06T06:33:24.437Z,82.30
2018-05-06T06:35:52.261Z,83.10
2018-05-06T06:38:20.090Z,83.60
2018-05-06T06:40:48.096Z,81.70
2018-05-06T06:43:15.976Z,82.70
2018-05-06T06:45:44.536Z,82.30
2018-05-06T06:48:12.576Z,82.10
2018-05-06T06:50:40.476Z,83.00
2018-05-06T06:53:08.379Z,84.10
2018-05-06T06:55:36.359Z,84.00
2018-05-06T06:58:04.263Z,82.90
2018-05-06T07:00:32.184Z,82.80
2018-05-06T07:03:00.336Z,82.00
2018-05-06T07:05:28.135Z,83.60
2018-05-06T07:07:56.155Z,81.60
2018-05-06T07:10:24.239Z,82.20
2018-05-06T07:12:52.154Z,81.50
2018-05-06T07:15:20.103Z,81.90
2018-05-06T07:17:49.656Z,80.80
2018-05-06T07:20:17.899Z,80.70
2018-05-06T07:22:46.114Z,81.00
2018-05-06T07:25:13.955Z,79.20
2018-05-06T07:27:41.984Z,78.70
2018-05-06T07:30:09.935Z,78.50
2018-05-06T07:32:37.914Z,77.90
2018-05-06T07:35:05.738Z,78.10
2018-05-06T07:37:34.016Z,77.20
2018-05-06T07:40:02.014Z,76.90
2018-05-06T07:42:30.414Z,74.00
2018-05-06T07:44:58.234Z,77.60
2018-05-06T07:47:26.076Z,76.70
2018-05-06T07:49:54.016Z,76.30
2018-05-06T07:52:22.294Z,75.60
2018-05-06T07:54:50.234Z,74.20
2018-05-06T07:57:19.214Z,74.40
2018-05-06T07:59:47.194Z,74.40
2018-05-06T08:02:15.119Z,73.90
2018-05-06T08:04:43.125Z,74.30
2018-05-06T08:07:10.980Z,73.40
2018-05-06T08:09:39.099Z,73.20
2018-05-06T08:12:07.001Z,72.40
2018-05-06T08:14:34.899Z,71.10
2018-05-06T08:17:03.839Z,69.60
2018-05-06T08:19:31.779Z,67.90
2018-05-06T08:21:59.859Z,69.00
2018-05-06T08:24:27.695Z,68.90
2018-05-06T08:26:55.537Z,70.80
2018-05-06T08:29:23.481Z,68.10
2018-05-06T08:31:51.488Z,68.20
2018-05-06T08:34:19.240Z,67.60
2018-05-06T08:36:47.441Z,69.20
2018-05-06T08:39:15.364Z,68.20
2018-05-06T08:41:43.616Z,68.50
2018-05-06T08:44:12.304Z,67.90
2018-05-06T08:46:40.283Z,67.90
2018-05-06T08:49:08.174Z,66.90
2018-05-06T08:51:35.829Z,66.70
2018-05-06T08:54:03.841Z,65.40
2018-05-06T08:56:31.780Z,65.90
2018-05-06T08:58:59.701Z,63.90
2018-05-06T09:01:27.855Z,66.80
2018-05-06T09:03:55.756Z,64.50
2018-05-06T09:06:23.775Z,65.80
2018-05-06T09:08:51.656Z,65.60
2018-05-06T09:11:19.874Z,68.30
2018-05-06T09:13:47.736Z,67.60
2018-05-06T09:16:18.076Z,65.90
2018-05-06T09:18:45.856Z,66.00
2018-05-06T09:21:13.815Z,63.80
2018-05-06T09:23:41.741Z,64.20
2018-05-06T09:26:09.677Z,62.50
2018-05-06T09:28:37.577Z,64.30
2018-05-06T09:31:05.516Z,62.70
2018-05-06T09:33:33.556Z,60.50
2018-05-06T09:36:01.817Z,60.50
2018-05-06T09:38:29.678Z,61.00
2018-05-06T09:40:58.934Z,60.30
2018-05-06T09:43:27.137Z,58.50
2018-05-06T09:45:55.439Z,59.40
2018-05-06T09:48:24.598Z,60.40
2018-05-06T09:50:52.441Z,60.40
2018-05-06T09:53:20.556Z,55.00
2018-05-06T09:55:48.696Z,58.30
2018-05-06T09:58:16.636Z,59.40
2018-05-06T10:00:44.656Z,56.70
2018-05-06T10:03:12.614Z,57.90
2018-05-06T10:05:40.715Z,58.70
2018-05-06T10:08:08.683Z,55.40
2018-05-06T10:10:36.554Z,58.20
2018-05-06T10:13:05.134Z,59.50
2018-05-06T10:15:33.335Z,56.20
2018-05-06T10:18:01.397Z,54.00
2018-05-06T10:20:29.279Z,56.20
2018-05-06T10:22:57.175Z,53.20
2018-05-06T10:25:25.135Z,54.10
2018-05-06T10:27:54.157Z,52.30
2018-05-06T10:30:22.174Z,52.70
2018-05-06T10:32:50.103Z,52.50
2018-05-06T10:35:18.095Z,52.40
2018-05-06T10:37:46.455Z,53.00
2018-05-06T10:40:14.475Z,54.90
2018-05-06T10:42:42.341Z,53.80
2018-05-06T10:45:10.247Z,53.30
2018-05-06T10:47:38.118Z,58.20
2018-05-06T10:50:06.061Z,54.10
2018-05-06T10:52:33.901Z,52.90
2018-05-06T10:55:01.919Z,51.40
2018-05-06T10:57:30.209Z,54.00
2018-05-06T10:59:58.080Z,53.90
2018-05-06T11:02:26.182Z,54.70
2018-05-06T11:04:54.099Z,54.50
2018-05-06T11:07:22.719Z,55.50
2018-05-06T11:09:50.558Z,55.60
2018-05-06T11:12:18.560Z,57.30
2018-05-06T11:14:47.238Z,56.50
2018-05-06T11:17:15.179Z,56.50
2018-05-06T11:19:43.258Z,58.40
2018-05-06T11:22:11.303Z,56.20
2018-05-06T11:24:39.259Z,55.80
2018-05-06T11:27:07.382Z,56.90
2018-05-06T11:29:35.362Z,53.70
2018-05-06T11:32:03.426Z,58.50
2018-05-06T11:34:31.377Z,57.90
2018-05-06T11:36:59.408Z,58.80
2018-05-06T11:39:27.558Z,57.00
2018-05-06T11:41:57.118Z,57.80
2018-05-06T11:44:25.377Z,57.70
2018-05-06T11:46:53.398Z,58.20
2018-05-06T11:49:21.681Z,57.70
2018-05-06T11:51:49.779Z,57.10
2018-05-06T11:54:17.614Z,56.90
2018-05-06T11:56:45.795Z,56.50
2018-05-06T11:59:13.734Z,59.80
2018-05-06T12:01:42.459Z,56.80
2018-05-06T12:04:10.427Z,56.80
2018-05-06T12:06:38.602Z,53.90
2018-05-06T12:09:06.784Z,52.90
2018-05-06T12:11:36.218Z,51.10
2018-05-06T12:14:04.200Z,51.00
2018-05-06T12:16:32.118Z,52.70
2018-05-06T12:19:00.378Z,52.50
2018-05-06T12:21:28.219Z,53.70
2018-05-06T12:23:56.210Z,50.80
2018-05-06T12:26:24.479Z,53.50
2018-05-06T12:28:52.698Z,53.00
2018-05-06T12:31:22.513Z,51.80
2018-05-06T12:33:50.478Z,49.50
2018-05-06T12:36:18.298Z,48.80
2018-05-06T12:38:46.618Z,48.20
2018-05-06T12:41:14.598Z,51.00
2018-05-06T12:43:42.617Z,49.30
2018-05-06T12:46:10.475Z,48.40
2018-05-06T12:48:38.602Z,48.10
2018-05-06T12:51:06.466Z,44.80
2018-05-06T12:53:34.897Z,45.10
2018-05-06T12:56:02.798Z,45.30
2018-05-06T12:58:30.698Z,46.70
2018-05-06T13:00:58.576Z,47.80
2018-05-06T13:03:26.536Z,44.30
2018-05-06T13:08:26.376Z,47.40
2018-05-06T13:10:54.496Z,47.00
2018-05-06T13:13:22.418Z,47.80
2018-05-06T13:15:50.736Z,46.30
2018-05-06T13:18:18.496Z,43.30
2018-05-06T13:20:46.416Z,44.40
2018-05-06T13:23:14.236Z,45.80
2018-05-06T13:28:14.295Z,46.90
2018-05-06T13:30:42.459Z,46.80
2018-05-06T13:33:10.435Z,43.30
2018-05-06T13:35:38.454Z,44.60
2018-05-06T13:38:06.415Z,42.00
2018-05-06T13:40:34.344Z,43.30
2018-05-06T13:43:02.616Z,43.10
2018-05-06T13:45:30.537Z,42.90
2018-05-06T13:47:58.616Z,46.20
2018-05-06T13:50:27.675Z,45.70
2018-05-06T13:52:55.676Z,45.70
2018-05-06T13:55:24.975Z,43.20
2018-05-06T13:57:52.956Z,43.50
2018-05-06T14:00:20.704Z,43.00
2018-05-06T14:02:48.697Z,43.60
2018-05-06T14:05:17.476Z,41.80
2018-05-06T14:07:45.376Z,41.80
2018-05-06T14:10:13.276Z,42.40
2018-05-06T14:12:41.075Z,40.40
2018-05-06T14:15:09.023Z,41.10
2018-05-06T14:17:37.381Z,42.60
2018-05-06T14:20:05.377Z,42.70
2018-05-06T14:22:33.775Z,44.20
2018-05-06T14:25:01.975Z,43.80
2018-05-06T14:27:29.937Z,42.60
2018-05-06T14:29:59.657Z,42.10
2018-05-06T14:32:27.676Z,41.60
2018-05-06T14:34:55.576Z,41.10
2018-05-06T14:37:23.539Z,42.70
2018-05-06T14:39:51.496Z,43.40
2018-05-06T14:42:19.417Z,42.80
2018-05-06T14:44:47.338Z,43.70
2018-05-06T14:47:27.038Z,42.40
2018-05-06T14:49:55.098Z,42.10
2018-05-06T14:52:23.238Z,43.00
2018-05-06T14:54:51.218Z,42.20
2018-05-06T14:57:19.798Z,41.00
2018-05-06T14:59:48.179Z,41.10
2018-05-06T15:02:16.098Z,43.20
2018-05-06T15:04:44.018Z,44.10
2018-05-06T15:07:11.918Z,41.60
2018-05-06T15:09:39.860Z,39.90
2018-05-06T15:12:07.798Z,40.50
2018-05-06T15:14:36.578Z,40.10
2018-05-06T15:17:04.577Z,40.00
2018-05-06T15:19:32.461Z,41.30
2018-05-06T15:22:00.316Z,42.60
2018-05-06T15:24:28.181Z,40.60
2018-05-06T15:26:55.955Z,41.30
2018-05-06T15:29:23.836Z,40.80
2018-05-06T15:31:51.892Z,42.00
2018-05-06T15:34:19.728Z,40.90
2018-05-06T15:36:47.550Z,41.00
2018-05-06T15:39:15.463Z,40.90
2018-05-06T15:41:44.041Z,41.10
2018-05-06T15:44:11.915Z,41.10
2018-05-06T15:46:39.900Z,40.90
2018-05-06T15:49:08.062Z,40.90
2018-05-06T15:51:36.101Z,41.30
2018-05-06T15:54:03.956Z,40.40
2018-05-06T15:56:31.821Z,41.00
2018-05-06T15:58:59.880Z,39.70
2018-05-06T16:01:27.600Z,38.80
2018-05-06T16:04:07.785Z,38.30
2018-05-06T16:06:35.690Z,38.50
2018-05-06T16:09:03.857Z,38.40
2018-05-06T16:11:32.065Z,39.10
2018-05-06T16:14:00.018Z,37.80
2018-05-06T16:16:27.962Z,37.90
2018-05-06T16:18:56.778Z,38.90
2018-05-06T16:21:24.737Z,38.90
2018-05-06T16:23:52.638Z,38.70
2018-05-06T16:26:20.678Z,38.60
2018-05-06T16:28:48.579Z,39.20
2018-05-06T16:31:16.499Z,38.50
2018-05-06T16:33:44.638Z,38.70
2018-05-06T16:36:12.557Z,39.50
2018-05-06T16:38:40.817Z,38.50
2018-05-06T16:41:08.657Z,38.70
2018-05-06T16:43:36.578Z,39.50
2018-05-06T16:46:04.697Z,39.10
2018-05-06T16:48:34.970Z,39.80
2018-05-06T16:51:02.897Z,39.80
2018-05-06T16:53:31.317Z,40.20
2018-05-06T16:55:59.297Z,40.40
2018-05-06T16:58:29.120Z,40.70
2018-05-06T17:00:58.681Z,41.90
2018-05-06T17:03:26.560Z,42.50
2018-05-06T17:05:54.522Z,42.90
2018-05-06T17:08:22.280Z,45.10
2018-05-06T17:10:50.164Z,43.70
2018-05-06T17:13:18.024Z,42.70
2018-05-06T17:15:45.921Z,44.20
2018-05-06T17:18:14.062Z,45.60
2018-05-06T17:20:42.040Z,46.60
2018-05-06T17:23:10.141Z,46.30
2018-05-06T17:25:39.041Z,45.70
2018-05-06T17:28:07.170Z,45.70
2018-05-06T17:30:35.080Z,46.20
2018-05-06T17:33:03.160Z,45.40
2018-05-06T17:35:31.021Z,47.20
2018-05-06T17:37:59.124Z,47.20
2018-05-06T17:40:27.101Z,47.60
2018-05-06T17:42:54.981Z,48.30
2018-05-06T17:45:22.860Z,48.50
2018-05-06T17:47:50.820Z,49.80
2018-05-06T17:50:18.741Z,48.80
2018-05-06T17:52:46.780Z,48.30
2018-05-06T17:55:14.725Z,49.00
2018-05-06T17:57:43.121Z,48.90
2018-05-06T18:00:11.699Z,48.20
2018-05-06T18:02:39.865Z,48.20
2018-05-06T18:05:08.706Z,48.30
2018-05-06T18:07:36.623Z,48.30
2018-05-06T18:10:05.918Z,47.10
2018-05-06T18:12:33.783Z,46.90
2018-05-06T18:15:01.704Z,47.40
2018-05-06T18:17:29.624Z,47.10
2018-05-06T18:19:57.582Z,48.40
2018-05-06T18:22:25.862Z,48.60
2018-05-06T18:24:54.082Z,47.80
2018-05-06T18:27:22.106Z,48.40
2018-05-06T18:29:50.403Z,48.00
2018-05-06T18:32:18.463Z,47.50
2018-05-06T18:34:46.423Z,48.00
2018-05-06T18:37:14.407Z,47.90
2018-05-06T18:39:42.657Z,47.50
2018-05-06T18:42:11.401Z,47.70
2018-05-06T18:44:39.478Z,47.70
2018-05-06T18:47:07.477Z,48.00
2018-05-06T18:49:35.599Z,48.30
2018-05-06T18:52:03.537Z,48.40
2018-05-06T18:54:31.378Z,48.60
2018-05-06T18:56:59.318Z,48.70
2018-05-06T18:59:27.197Z,49.00
2018-05-06T19:01:55.117Z,49.40
2018-05-06T19:04:23.255Z,49.80
2018-05-06T19:06:51.335Z,50.50
2018-05-06T19:09:19.176Z,52.80
2018-05-06T19:11:47.516Z,53.30
2018-05-06T19:16:48.335Z,55.30
2018-05-06T19:19:16.276Z,55.30
2018-05-06T19:21:44.135Z,54.10
2018-05-06T19:24:12.459Z,54.00
2018-05-06T19:26:41.298Z,55.10
2018-05-06T19:29:09.335Z,55.10
2018-05-06T19:31:37.217Z,56.50
2018-05-06T19:34:05.336Z,55.30
2018-05-06T19:36:33.256Z,55.40
2018-05-06T19:39:01.295Z,55.40
2018-05-06T19:41:29.175Z,54.80
2018-05-06T19:43:57.219Z,55.00
2018-05-06T19:46:25.175Z,55.00
2018-05-06T19:48:53.177Z,55.00
2018-05-06T19:51:21.037Z,55.00
2018-05-06T19:53:48.943Z,54.60
2018-05-06T19:56:16.856Z,54.70
2018-05-06T19:58:45.076Z,54.20
2018-05-06T20:01:13.145Z,54.10
2018-05-06T20:03:41.544Z,54.30
2018-05-06T20:06:09.443Z,55.20
2018-05-06T20:08:37.342Z,55.50
2018-05-06T20:11:05.265Z,55.80
2018-05-06T20:13:33.222Z,56.30
2018-05-06T20:16:01.502Z,58.00
2018-05-06T20:18:29.463Z,58.80
2018-05-06T20:20:57.281Z,58.90
2018-05-06T20:23:25.282Z,57.90
2018-05-06T20:25:53.160Z,57.50
2018-05-06T20:28:21.059Z,57.60
2018-05-06T20:30:48.979Z,57.90
2018-05-06T20:33:17.004Z,57.40
2018-05-06T20:35:45.062Z,57.80
2018-05-06T20:38:12.749Z,57.70
2018-05-06T20:40:40.618Z,58.20
2018-05-06T20:43:08.404Z,58.50
2018-05-06T20:45:36.242Z,59.40
2018-05-06T20:48:03.956Z,59.40
2018-05-06T20:50:31.809Z,59.60
2018-05-06T20:53:00.019Z,59.20
2018-05-06T20:55:28.022Z,60.10
2018-05-06T20:57:56.002Z,59.90
2018-05-06T21:00:23.756Z,60.10
2018-05-06T21:02:51.674Z,60.30
2018-05-06T21:05:19.575Z,60.00
2018-05-06T21:07:48.558Z,59.30
2018-05-06T21:10:16.421Z,59.30
2018-05-06T21:12:44.259Z,59.70
2018-05-06T21:15:12.539Z,59.30
2018-05-06T21:17:40.380Z,62.30
2018-05-06T21:20:08.419Z,60.80
2018-05-06T21:22:36.296Z,60.90
2018-05-06T21:25:04.097Z,61.70
2018-05-06T21:27:31.919Z,63.70
2018-05-06T21:29:59.607Z,63.00
2018-05-06T21:32:27.295Z,63.50
2018-05-06T21:34:54.995Z,66.80
2018-05-06T21:37:22.667Z,69.90
2018-05-06T21:39:50.344Z,69.30
2018-05-06T21:42:18.400Z,68.70
2018-05-06T21:44:46.455Z,68.40
2018-05-06T21:47:14.774Z,68.20
2018-05-06T21:49:42.796Z,68.30
2018-05-06T21:52:11.735Z,69.40
2018-05-06T21:54:39.695Z,69.40
2018-05-06T21:57:07.676Z,69.40
2018-05-06T21:59:35.735Z,69.80
2018-05-06T22:02:03.696Z,69.00
2018-05-06T22:04:32.075Z,68.80
2018-05-06T22:07:01.655Z,69.20
2018-05-06T22:09:29.815Z,67.80
2018-05-06T22:11:57.894Z,67.40
2018-05-06T22:14:25.834Z,67.90
2018-05-06T22:16:54.035Z,67.50
2018-05-06T22:19:21.915Z,66.80
2018-05-06T22:21:50.255Z,66.00
2018-05-06T22:24:18.234Z,66.50
2018-05-06T22:26:46.156Z,67.00
2018-05-06T22:29:14.095Z,65.40
2018-05-06T22:31:42.037Z,63.00
2018-05-06T22:34:10.684Z,64.30
2018-05-06T22:36:38.795Z,63.50
2018-05-06T22:39:06.655Z,63.70
2018-05-06T22:41:34.630Z,63.80
2018-05-06T22:44:02.775Z,63.60
2018-05-06T22:46:30.615Z,63.70
2018-05-06T22:48:58.577Z,64.30
2018-05-06T22:51:26.616Z,64.50
2018-05-06T22:53:54.555Z,64.60
2018-05-06T22:56:22.741Z,64.40
2018-05-06T22:58:50.714Z,65.30
2018-05-06T23:01:19.456Z,65.20
2018-05-06T23:03:47.454Z,65.20
2018-05-06T23:06:16.214Z,65.60
2018-05-06T23:08:44.095Z,65.60
2018-05-06T23:13:44.017Z,65.90
2018-05-06T23:16:13.815Z,65.90
2018-05-06T23:18:42.135Z,66.10
2018-05-06T23:21:10.055Z,65.40
2018-05-06T23:23:38.070Z,66.30
2018-05-06T23:26:08.637Z,65.90
2018-05-06T23:28:36.575Z,65.80
2018-05-06T23:31:04.594Z,64.80
2018-05-06T23:33:32.435Z,64.90
2018-05-06T23:36:00.855Z,65.80
2018-05-06T23:38:28.934Z,64.30
2018-05-06T23:40:57.194Z,65.10
2018-05-06T23:43:25.115Z,65.00
2018-05-06T23:45:53.335Z,64.40
2018-05-06T23:48:21.295Z,63.90
2018-05-06T23:50:49.495Z,64.00
2018-05-06T23:53:17.657Z,64.40
2018-05-06T23:55:45.576Z,64.20
2018-05-06T23:58:13.520Z,64.40
